sensor_id;sensor_type;location;lat;lon;timestamp;P1;durP1;ratioP1;P2;durP2;ratioP2
11964;SDS011;6042;41.326;19.826;2023-02-28T00:02:13;14.57;;;2.83;;
11964;SDS011;6042;41.326;19.826;2023-02-28T00:04:44;10.67;;;4.27;;
11964;SDS011;6042;41.326;19.826;2023-02-28T00:07:19;11.37;;;2.80;;
11964;SDS011;6042;41.326;19.826;2023-02-28T00:09:49;15.17;;;4.00;;
11964;SDS011;6042;41.326;19.826;2023-02-28T00:12:17;9.50;;;3.10;;
11964;SDS011;6042;41.326;19.826;2023-02-28T00:14:46;9.93;;;2.60;;
11964;SDS011;6042;41.326;19.826;2023-02-28T00:17:15;13.00;;;3.00;;
11964;SDS011;6042;41.326;19.826;2023-02-28T00:19:44;11.13;;;2.80;;
11964;SDS011;6042;41.326;19.826;2023-02-28T00:22:13;15.07;;;3.03;;
11964;SDS011;6042;41.326;19.826;2023-02-28T00:24:41;13.10;;;2.93;;
11964;SDS011;6042;41.326;19.826;2023-02-28T00:27:12;12.60;;;2.60;;
11964;SDS011;6042;41.326;19.826;2023-02-28T00:29:43;13.27;;;2.63;;
11964;SDS011;6042;41.326;19.826;2023-02-28T00:32:16;15.53;;;2.70;;
11964;SDS011;6042;41.326;19.826;2023-02-28T00:34:45;12.27;;;3.07;;
11964;SDS011;6042;41.326;19.826;2023-02-28T00:37:13;11.73;;;2.80;;
11964;SDS011;6042;41.326;19.826;2023-02-28T00:39:42;8.63;;;2.90;;
11964;SDS011;6042;41.326;19.826;2023-02-28T00:42:12;17.23;;;3.13;;
11964;SDS011;6042;41.326;19.826;2023-02-28T00:44:46;13.77;;;2.93;;
11964;SDS011;6042;41.326;19.826;2023-02-28T00:47:15;14.77;;;2.67;;
11964;SDS011;6042;41.326;19.826;2023-02-28T00:49:47;15.37;;;2.93;;
11964;SDS011;6042;41.326;19.826;2023-02-28T00:52:18;10.07;;;2.50;;
11964;SDS011;6042;41.326;19.826;2023-02-28T00:54:51;11.90;;;3.03;;
11964;SDS011;6042;41.326;19.826;2023-02-28T00:57:25;15.90;;;2.83;;
11964;SDS011;6042;41.326;19.826;2023-02-28T00:59:54;17.63;;;3.27;;
11964;SDS011;6042;41.326;19.826;2023-02-28T01:02:26;12.07;;;2.43;;
11964;SDS011;6042;41.326;19.826;2023-02-28T01:04:54;13.17;;;2.80;;
11964;SDS011;6042;41.326;19.826;2023-02-28T01:07:24;11.70;;;2.73;;
11964;SDS011;6042;41.326;19.826;2023-02-28T01:09:52;17.43;;;3.00;;
11964;SDS011;6042;41.326;19.826;2023-02-28T01:12:23;15.60;;;2.67;;
11964;SDS011;6042;41.326;19.826;2023-02-28T01:14:57;9.50;;;2.77;;
11964;SDS011;6042;41.326;19.826;2023-02-28T01:17:25;7.63;;;2.43;;
11964;SDS011;6042;41.326;19.826;2023-02-28T01:19:54;18.00;;;2.60;;
11964;SDS011;6042;41.326;19.826;2023-02-28T01:22:24;11.80;;;2.63;;
11964;SDS011;6042;41.326;19.826;2023-02-28T01:24:52;15.93;;;3.43;;
11964;SDS011;6042;41.326;19.826;2023-02-28T01:27:21;19.40;;;3.20;;
11964;SDS011;6042;41.326;19.826;2023-02-28T01:29:52;19.13;;;2.60;;
11964;SDS011;6042;41.326;19.826;2023-02-28T01:32:21;10.47;;;3.00;;
11964;SDS011;6042;41.326;19.826;2023-02-28T01:34:52;15.53;;;2.67;;
11964;SDS011;6042;41.326;19.826;2023-02-28T01:37:22;9.97;;;2.53;;
11964;SDS011;6042;41.326;19.826;2023-02-28T01:39:51;11.90;;;2.80;;
11964;SDS011;6042;41.326;19.826;2023-02-28T01:42:22;15.13;;;2.73;;
11964;SDS011;6042;41.326;19.826;2023-02-28T01:44:57;9.43;;;2.57;;
11964;SDS011;6042;41.326;19.826;2023-02-28T01:47:28;11.47;;;2.57;;
11964;SDS011;6042;41.326;19.826;2023-02-28T01:49:59;17.43;;;3.67;;
11964;SDS011;6042;41.326;19.826;2023-02-28T01:52:30;16.77;;;2.87;;
11964;SDS011;6042;41.326;19.826;2023-02-28T01:55:01;12.53;;;2.60;;
11964;SDS011;6042;41.326;19.826;2023-02-28T01:57:32;23.97;;;3.43;;
11964;SDS011;6042;41.326;19.826;2023-02-28T02:00:10;12.27;;;2.63;;
11964;SDS011;6042;41.326;19.826;2023-02-28T02:02:46;9.20;;;2.50;;
11964;SDS011;6042;41.326;19.826;2023-02-28T02:05:18;6.37;;;2.40;;
11964;SDS011;6042;41.326;19.826;2023-02-28T02:07:48;19.23;;;2.80;;
11964;SDS011;6042;41.326;19.826;2023-02-28T02:10:20;15.20;;;3.07;;
11964;SDS011;6042;41.326;19.826;2023-02-28T02:13:00;13.20;;;2.73;;
11964;SDS011;6042;41.326;19.826;2023-02-28T02:15:42;11.40;;;2.20;;
11964;SDS011;6042;41.326;19.826;2023-02-28T02:18:19;14.53;;;3.50;;
11964;SDS011;6042;41.326;19.826;2023-02-28T02:27:03;14.63;;;2.50;;
11964;SDS011;6042;41.326;19.826;2023-02-28T02:29:50;13.70;;;3.17;;
11964;SDS011;6042;41.326;19.826;2023-02-28T02:32:44;9.67;;;2.70;;
11964;SDS011;6042;41.326;19.826;2023-02-28T02:35:27;9.47;;;2.80;;
11964;SDS011;6042;41.326;19.826;2023-02-28T02:38:02;7.27;;;2.80;;
11964;SDS011;6042;41.326;19.826;2023-02-28T02:40:38;16.03;;;3.37;;
11964;SDS011;6042;41.326;19.826;2023-02-28T02:43:13;15.30;;;4.47;;
11964;SDS011;6042;41.326;19.826;2023-02-28T02:45:48;14.63;;;4.23;;
11964;SDS011;6042;41.326;19.826;2023-02-28T02:48:21;15.23;;;4.77;;
11964;SDS011;6042;41.326;19.826;2023-02-28T02:50:55;15.50;;;5.17;;
11964;SDS011;6042;41.326;19.826;2023-02-28T02:53:27;12.20;;;4.93;;
11964;SDS011;6042;41.326;19.826;2023-02-28T02:56:00;17.97;;;4.93;;
11964;SDS011;6042;41.326;19.826;2023-02-28T02:58:31;16.00;;;4.73;;
11964;SDS011;6042;41.326;19.826;2023-02-28T03:01:02;17.07;;;4.87;;
11964;SDS011;6042;41.326;19.826;2023-02-28T03:03:32;14.47;;;4.50;;
11964;SDS011;6042;41.326;19.826;2023-02-28T03:06:03;11.20;;;3.57;;
11964;SDS011;6042;41.326;19.826;2023-02-28T03:08:34;10.43;;;4.63;;
11964;SDS011;6042;41.326;19.826;2023-02-28T03:11:04;14.73;;;5.20;;
11964;SDS011;6042;41.326;19.826;2023-02-28T03:13:42;17.87;;;5.03;;
11964;SDS011;6042;41.326;19.826;2023-02-28T03:16:33;12.37;;;5.17;;
11964;SDS011;6042;41.326;19.826;2023-02-28T03:19:11;13.20;;;5.07;;
11964;SDS011;6042;41.326;19.826;2023-02-28T03:22:00;15.07;;;4.47;;
11964;SDS011;6042;41.326;19.826;2023-02-28T03:24:41;15.07;;;4.60;;
11964;SDS011;6042;41.326;19.826;2023-02-28T03:27:15;10.67;;;4.23;;
11964;SDS011;6042;41.326;19.826;2023-02-28T03:29:47;10.30;;;4.33;;
11964;SDS011;6042;41.326;19.826;2023-02-28T03:32:21;13.37;;;4.57;;
11964;SDS011;6042;41.326;19.826;2023-02-28T03:34:55;21.87;;;5.20;;
11964;SDS011;6042;41.326;19.826;2023-02-28T03:37:31;12.77;;;4.43;;
11964;SDS011;6042;41.326;19.826;2023-02-28T03:40:06;17.73;;;4.70;;
11964;SDS011;6042;41.326;19.826;2023-02-28T03:42:39;17.17;;;3.97;;
11964;SDS011;6042;41.326;19.826;2023-02-28T03:45:13;21.97;;;4.23;;
11964;SDS011;6042;41.326;19.826;2023-02-28T03:47:45;15.43;;;4.20;;
11964;SDS011;6042;41.326;19.826;2023-02-28T03:50:19;16.23;;;4.33;;
11964;SDS011;6042;41.326;19.826;2023-02-28T03:52:53;13.37;;;4.37;;
11964;SDS011;6042;41.326;19.826;2023-02-28T03:55:34;12.47;;;4.40;;
11964;SDS011;6042;41.326;19.826;2023-02-28T03:58:11;15.73;;;4.70;;
11964;SDS011;6042;41.326;19.826;2023-02-28T04:00:46;14.07;;;3.90;;
11964;SDS011;6042;41.326;19.826;2023-02-28T04:03:19;15.10;;;4.60;;
11964;SDS011;6042;41.326;19.826;2023-02-28T04:05:48;14.93;;;4.30;;
11964;SDS011;6042;41.326;19.826;2023-02-28T04:08:21;15.07;;;4.53;;
11964;SDS011;6042;41.326;19.826;2023-02-28T04:10:52;12.83;;;4.80;;
11964;SDS011;6042;41.326;19.826;2023-02-28T04:13:25;13.87;;;4.40;;
11964;SDS011;6042;41.326;19.826;2023-02-28T04:15:53;14.00;;;4.27;;
11964;SDS011;6042;41.326;19.826;2023-02-28T04:18:21;11.17;;;3.40;;
11964;SDS011;6042;41.326;19.826;2023-02-28T04:20:50;12.97;;;3.37;;
11964;SDS011;6042;41.326;19.826;2023-02-28T04:23:18;18.53;;;4.20;;
11964;SDS011;6042;41.326;19.826;2023-02-28T04:25:48;14.27;;;3.83;;
11964;SDS011;6042;41.326;19.826;2023-02-28T04:28:17;13.23;;;3.27;;
11964;SDS011;6042;41.326;19.826;2023-02-28T04:30:46;12.47;;;3.67;;
11964;SDS011;6042;41.326;19.826;2023-02-28T04:33:15;12.40;;;3.57;;
11964;SDS011;6042;41.326;19.826;2023-02-28T04:35:43;16.30;;;3.63;;
11964;SDS011;6042;41.326;19.826;2023-02-28T04:38:11;10.07;;;2.97;;
11964;SDS011;6042;41.326;19.826;2023-02-28T04:40:40;9.30;;;4.03;;
11964;SDS011;6042;41.326;19.826;2023-02-28T04:43:10;15.47;;;3.80;;
11964;SDS011;6042;41.326;19.826;2023-02-28T04:45:38;12.37;;;3.43;;
11964;SDS011;6042;41.326;19.826;2023-02-28T04:48:06;14.40;;;3.57;;
11964;SDS011;6042;41.326;19.826;2023-02-28T04:50:35;10.40;;;3.43;;
11964;SDS011;6042;41.326;19.826;2023-02-28T04:53:03;16.93;;;3.63;;
11964;SDS011;6042;41.326;19.826;2023-02-28T04:55:31;15.63;;;2.93;;
11964;SDS011;6042;41.326;19.826;2023-02-28T04:58:00;12.80;;;3.20;;
11964;SDS011;6042;41.326;19.826;2023-02-28T05:00:31;12.90;;;3.43;;
11964;SDS011;6042;41.326;19.826;2023-02-28T05:03:00;15.80;;;3.80;;
11964;SDS011;6042;41.326;19.826;2023-02-28T05:05:28;11.87;;;3.20;;
11964;SDS011;6042;41.326;19.826;2023-02-28T05:07:57;19.80;;;3.87;;
11964;SDS011;6042;41.326;19.826;2023-02-28T05:10:25;10.57;;;2.23;;
11964;SDS011;6042;41.326;19.826;2023-02-28T05:12:54;13.37;;;2.97;;
11964;SDS011;6042;41.326;19.826;2023-02-28T05:15:22;19.33;;;3.00;;
11964;SDS011;6042;41.326;19.826;2023-02-28T05:17:52;14.73;;;2.80;;
11964;SDS011;6042;41.326;19.826;2023-02-28T05:20:20;13.60;;;3.33;;
11964;SDS011;6042;41.326;19.826;2023-02-28T05:22:49;14.47;;;3.63;;
11964;SDS011;6042;41.326;19.826;2023-02-28T05:25:19;16.43;;;3.47;;
11964;SDS011;6042;41.326;19.826;2023-02-28T05:27:49;20.03;;;3.13;;
11964;SDS011;6042;41.326;19.826;2023-02-28T05:30:18;12.93;;;2.83;;
11964;SDS011;6042;41.326;19.826;2023-02-28T05:32:49;22.60;;;3.47;;
11964;SDS011;6042;41.326;19.826;2023-02-28T05:35:19;19.17;;;5.00;;
11964;SDS011;6042;41.326;19.826;2023-02-28T05:37:48;17.20;;;3.93;;
11964;SDS011;6042;41.326;19.826;2023-02-28T05:40:16;8.87;;;2.70;;
11964;SDS011;6042;41.326;19.826;2023-02-28T05:42:46;15.27;;;3.37;;
11964;SDS011;6042;41.326;19.826;2023-02-28T05:45:15;14.23;;;3.50;;
11964;SDS011;6042;41.326;19.826;2023-02-28T05:47:44;16.60;;;3.63;;
11964;SDS011;6042;41.326;19.826;2023-02-28T05:50:12;15.23;;;4.00;;
11964;SDS011;6042;41.326;19.826;2023-02-28T05:52:42;12.30;;;3.57;;
11964;SDS011;6042;41.326;19.826;2023-02-28T05:55:10;19.80;;;4.33;;
11964;SDS011;6042;41.326;19.826;2023-02-28T05:57:38;16.63;;;3.57;;
11964;SDS011;6042;41.326;19.826;2023-02-28T06:00:07;19.37;;;3.90;;
11964;SDS011;6042;41.326;19.826;2023-02-28T06:02:39;27.23;;;5.40;;
11964;SDS011;6042;41.326;19.826;2023-02-28T06:05:09;20.80;;;3.57;;
11964;SDS011;6042;41.326;19.826;2023-02-28T06:07:43;17.10;;;3.57;;
11964;SDS011;6042;41.326;19.826;2023-02-28T06:10:12;12.37;;;3.50;;
11964;SDS011;6042;41.326;19.826;2023-02-28T06:12:41;15.63;;;4.07;;
11964;SDS011;6042;41.326;19.826;2023-02-28T06:15:11;25.10;;;5.27;;
11964;SDS011;6042;41.326;19.826;2023-02-28T06:17:40;20.00;;;4.60;;
11964;SDS011;6042;41.326;19.826;2023-02-28T06:20:10;17.97;;;4.73;;
11964;SDS011;6042;41.326;19.826;2023-02-28T06:22:40;16.77;;;3.83;;
11964;SDS011;6042;41.326;19.826;2023-02-28T06:25:10;21.77;;;4.23;;
11964;SDS011;6042;41.326;19.826;2023-02-28T06:27:39;19.40;;;4.93;;
11964;SDS011;6042;41.326;19.826;2023-02-28T06:30:08;13.33;;;3.23;;
11964;SDS011;6042;41.326;19.826;2023-02-28T06:32:37;23.10;;;3.97;;
11964;SDS011;6042;41.326;19.826;2023-02-28T06:35:06;13.43;;;3.50;;
11964;SDS011;6042;41.326;19.826;2023-02-28T06:37:35;14.83;;;4.63;;
11964;SDS011;6042;41.326;19.826;2023-02-28T06:40:07;11.73;;;3.67;;
11964;SDS011;6042;41.326;19.826;2023-02-28T06:42:38;21.43;;;3.73;;
11964;SDS011;6042;41.326;19.826;2023-02-28T06:45:07;21.60;;;3.93;;
11964;SDS011;6042;41.326;19.826;2023-02-28T06:47:36;23.10;;;3.40;;
11964;SDS011;6042;41.326;19.826;2023-02-28T06:50:06;20.17;;;4.20;;
11964;SDS011;6042;41.326;19.826;2023-02-28T06:52:36;22.03;;;4.20;;
11964;SDS011;6042;41.326;19.826;2023-02-28T06:55:06;13.97;;;3.33;;
11964;SDS011;6042;41.326;19.826;2023-02-28T06:57:35;23.20;;;4.43;;
11964;SDS011;6042;41.326;19.826;2023-02-28T07:00:06;22.20;;;5.63;;
11964;SDS011;6042;41.326;19.826;2023-02-28T07:02:36;23.03;;;5.10;;
11964;SDS011;6042;41.326;19.826;2023-02-28T07:05:05;29.47;;;6.40;;
11964;SDS011;6042;41.326;19.826;2023-02-28T07:07:33;20.37;;;4.40;;
11964;SDS011;6042;41.326;19.826;2023-02-28T07:10:05;14.77;;;4.90;;
11964;SDS011;6042;41.326;19.826;2023-02-28T07:12:34;18.70;;;4.60;;
11964;SDS011;6042;41.326;19.826;2023-02-28T07:15:06;17.27;;;4.47;;
11964;SDS011;6042;41.326;19.826;2023-02-28T07:17:35;44.37;;;6.87;;
11964;SDS011;6042;41.326;19.826;2023-02-28T07:20:04;30.13;;;5.07;;
11964;SDS011;6042;41.326;19.826;2023-02-28T07:22:34;22.83;;;5.00;;
11964;SDS011;6042;41.326;19.826;2023-02-28T07:25:03;22.47;;;5.20;;
11964;SDS011;6042;41.326;19.826;2023-02-28T07:27:31;24.57;;;4.80;;
11964;SDS011;6042;41.326;19.826;2023-02-28T07:30:00;27.57;;;5.63;;
11964;SDS011;6042;41.326;19.826;2023-02-28T07:32:31;31.00;;;5.73;;
11964;SDS011;6042;41.326;19.826;2023-02-28T07:34:59;30.80;;;6.20;;
11964;SDS011;6042;41.326;19.826;2023-02-28T07:37:28;22.23;;;5.30;;
11964;SDS011;6042;41.326;19.826;2023-02-28T07:39:57;29.90;;;6.03;;
11964;SDS011;6042;41.326;19.826;2023-02-28T07:42:26;31.40;;;6.83;;
11964;SDS011;6042;41.326;19.826;2023-02-28T07:44:54;25.03;;;5.83;;
11964;SDS011;6042;41.326;19.826;2023-02-28T07:47:22;32.43;;;6.03;;
11964;SDS011;6042;41.326;19.826;2023-02-28T07:49:52;33.07;;;6.57;;
11964;SDS011;6042;41.326;19.826;2023-02-28T07:52:21;30.13;;;6.50;;
11964;SDS011;6042;41.326;19.826;2023-02-28T07:54:50;34.47;;;7.87;;
11964;SDS011;6042;41.326;19.826;2023-02-28T07:57:18;31.83;;;8.20;;
11964;SDS011;6042;41.326;19.826;2023-02-28T07:59:47;27.27;;;7.67;;
11964;SDS011;6042;41.326;19.826;2023-02-28T08:02:15;38.90;;;9.80;;
11964;SDS011;6042;41.326;19.826;2023-02-28T08:04:45;30.17;;;9.77;;
11964;SDS011;6042;41.326;19.826;2023-02-28T08:07:18;32.53;;;12.47;;
11964;SDS011;6042;41.326;19.826;2023-02-28T08:09:53;31.80;;;11.23;;
11964;SDS011;6042;41.326;19.826;2023-02-28T08:12:21;41.90;;;11.87;;
11964;SDS011;6042;41.326;19.826;2023-02-28T08:14:50;31.60;;;10.47;;
11964;SDS011;6042;41.326;19.826;2023-02-28T08:17:18;33.47;;;10.43;;
11964;SDS011;6042;41.326;19.826;2023-02-28T08:19:49;35.20;;;9.17;;
11964;SDS011;6042;41.326;19.826;2023-02-28T08:22:19;37.93;;;9.80;;
11964;SDS011;6042;41.326;19.826;2023-02-28T08:24:48;38.67;;;9.73;;
11964;SDS011;6042;41.326;19.826;2023-02-28T08:27:16;30.83;;;9.87;;
11964;SDS011;6042;41.326;19.826;2023-02-28T08:29:45;27.33;;;8.23;;
11964;SDS011;6042;41.326;19.826;2023-02-28T08:32:13;27.57;;;8.57;;
11964;SDS011;6042;41.326;19.826;2023-02-28T08:34:55;26.73;;;8.30;;
11964;SDS011;6042;41.326;19.826;2023-02-28T08:37:26;30.03;;;8.07;;
11964;SDS011;6042;41.326;19.826;2023-02-28T08:40:00;28.27;;;8.10;;
11964;SDS011;6042;41.326;19.826;2023-02-28T08:42:31;27.40;;;8.23;;
11964;SDS011;6042;41.326;19.826;2023-02-28T08:45:00;28.77;;;7.67;;
11964;SDS011;6042;41.326;19.826;2023-02-28T08:47:34;30.00;;;7.80;;
11964;SDS011;6042;41.326;19.826;2023-02-28T08:50:09;35.70;;;9.80;;
11964;SDS011;6042;41.326;19.826;2023-02-28T08:52:43;28.83;;;9.93;;
11964;SDS011;6042;41.326;19.826;2023-02-28T08:55:11;28.10;;;9.63;;
11964;SDS011;6042;41.326;19.826;2023-02-28T08:57:40;29.73;;;10.27;;
11964;SDS011;6042;41.326;19.826;2023-02-28T09:00:09;33.97;;;10.63;;
11964;SDS011;6042;41.326;19.826;2023-02-28T09:02:39;32.30;;;10.20;;
11964;SDS011;6042;41.326;19.826;2023-02-28T09:05:10;25.50;;;9.37;;
11964;SDS011;6042;41.326;19.826;2023-02-28T09:07:38;27.10;;;8.47;;
11964;SDS011;6042;41.326;19.826;2023-02-28T09:10:08;25.30;;;7.90;;
11964;SDS011;6042;41.326;19.826;2023-02-28T09:12:37;25.30;;;7.03;;
11964;SDS011;6042;41.326;19.826;2023-02-28T09:15:06;25.43;;;7.80;;
11964;SDS011;6042;41.326;19.826;2023-02-28T09:17:36;31.27;;;6.63;;
11964;SDS011;6042;41.326;19.826;2023-02-28T09:20:05;18.13;;;6.00;;
11964;SDS011;6042;41.326;19.826;2023-02-28T09:22:35;28.53;;;6.30;;
11964;SDS011;6042;41.326;19.826;2023-02-28T09:25:04;20.47;;;5.90;;
11964;SDS011;6042;41.326;19.826;2023-02-28T09:27:35;23.93;;;5.60;;
11964;SDS011;6042;41.326;19.826;2023-02-28T09:30:04;39.20;;;6.30;;
11964;SDS011;6042;41.326;19.826;2023-02-28T09:32:33;20.30;;;4.70;;
11964;SDS011;6042;41.326;19.826;2023-02-28T09:35:02;28.33;;;5.30;;
11964;SDS011;6042;41.326;19.826;2023-02-28T09:37:31;25.30;;;4.70;;
11964;SDS011;6042;41.326;19.826;2023-02-28T09:39:59;23.57;;;4.53;;
11964;SDS011;6042;41.326;19.826;2023-02-28T09:42:31;24.03;;;5.03;;
11964;SDS011;6042;41.326;19.826;2023-02-28T09:45:05;26.07;;;5.67;;
11964;SDS011;6042;41.326;19.826;2023-02-28T09:47:46;21.80;;;4.73;;
11964;SDS011;6042;41.326;19.826;2023-02-28T09:50:17;31.83;;;4.97;;
11964;SDS011;6042;41.326;19.826;2023-02-28T09:52:56;26.83;;;4.93;;
11964;SDS011;6042;41.326;19.826;2023-02-28T09:55:28;23.63;;;4.63;;
11964;SDS011;6042;41.326;19.826;2023-02-28T09:58:11;26.40;;;4.63;;
11964;SDS011;6042;41.326;19.826;2023-02-28T10:00:50;21.47;;;4.60;;
11964;SDS011;6042;41.326;19.826;2023-02-28T10:03:28;30.17;;;5.83;;
11964;SDS011;6042;41.326;19.826;2023-02-28T10:06:03;20.43;;;4.50;;
11964;SDS011;6042;41.326;19.826;2023-02-28T10:08:40;24.13;;;4.93;;
11964;SDS011;6042;41.326;19.826;2023-02-28T10:11:17;24.00;;;5.53;;
11964;SDS011;6042;41.326;19.826;2023-02-28T10:13:51;21.50;;;5.27;;
11964;SDS011;6042;41.326;19.826;2023-02-28T10:16:27;24.63;;;5.03;;
11964;SDS011;6042;41.326;19.826;2023-02-28T10:18:59;27.83;;;5.27;;
11964;SDS011;6042;41.326;19.826;2023-02-28T10:21:34;24.10;;;5.90;;
11964;SDS011;6042;41.326;19.826;2023-02-28T10:24:11;26.87;;;5.50;;
11964;SDS011;6042;41.326;19.826;2023-02-28T10:26:48;28.80;;;5.03;;
11964;SDS011;6042;41.326;19.826;2023-02-28T10:29:19;31.17;;;5.17;;
11964;SDS011;6042;41.326;19.826;2023-02-28T10:31:49;30.57;;;5.57;;
11964;SDS011;6042;41.326;19.826;2023-02-28T10:34:18;36.60;;;6.83;;
11964;SDS011;6042;41.326;19.826;2023-02-28T10:36:47;23.30;;;5.70;;
11964;SDS011;6042;41.326;19.826;2023-02-28T10:39:34;39.77;;;6.77;;
11964;SDS011;6042;41.326;19.826;2023-02-28T10:42:05;27.77;;;5.60;;
11964;SDS011;6042;41.326;19.826;2023-02-28T10:44:48;27.43;;;6.27;;
11964;SDS011;6042;41.326;19.826;2023-02-28T10:47:18;28.67;;;6.20;;
11964;SDS011;6042;41.326;19.826;2023-02-28T10:49:51;28.30;;;5.60;;
11964;SDS011;6042;41.326;19.826;2023-02-28T10:52:32;30.80;;;5.60;;
11964;SDS011;6042;41.326;19.826;2023-02-28T10:55:14;30.40;;;5.93;;
11964;SDS011;6042;41.326;19.826;2023-02-28T10:57:48;32.87;;;5.83;;
11964;SDS011;6042;41.326;19.826;2023-02-28T11:00:18;26.77;;;5.20;;
11964;SDS011;6042;41.326;19.826;2023-02-28T11:02:49;23.63;;;5.30;;
11964;SDS011;6042;41.326;19.826;2023-02-28T11:05:22;19.17;;;4.57;;
11964;SDS011;6042;41.326;19.826;2023-02-28T11:07:57;29.40;;;6.10;;
11964;SDS011;6042;41.326;19.826;2023-02-28T11:10:31;33.23;;;6.90;;
11964;SDS011;6042;41.326;19.826;2023-02-28T11:13:01;27.73;;;5.60;;
11964;SDS011;6042;41.326;19.826;2023-02-28T11:15:31;26.30;;;5.80;;
11964;SDS011;6042;41.326;19.826;2023-02-28T11:18:05;32.10;;;7.03;;
11964;SDS011;6042;41.326;19.826;2023-02-28T11:20:49;24.43;;;6.33;;
11964;SDS011;6042;41.326;19.826;2023-02-28T11:23:21;30.80;;;5.80;;
11964;SDS011;6042;41.326;19.826;2023-02-28T11:25:56;33.93;;;6.20;;
11964;SDS011;6042;41.326;19.826;2023-02-28T11:28:28;23.53;;;5.90;;
11964;SDS011;6042;41.326;19.826;2023-02-28T11:31:03;22.43;;;5.73;;
11964;SDS011;6042;41.326;19.826;2023-02-28T11:33:49;38.67;;;7.53;;
11964;SDS011;6042;41.326;19.826;2023-02-28T11:36:19;26.37;;;6.47;;
11964;SDS011;6042;41.326;19.826;2023-02-28T11:38:51;27.37;;;6.03;;
11964;SDS011;6042;41.326;19.826;2023-02-28T11:44:22;29.60;;;5.70;;
11964;SDS011;6042;41.326;19.826;2023-02-28T11:47:00;29.23;;;6.20;;
11964;SDS011;6042;41.326;19.826;2023-02-28T11:49:37;22.47;;;5.70;;
11964;SDS011;6042;41.326;19.826;2023-02-28T11:52:16;29.60;;;7.07;;
11964;SDS011;6042;41.326;19.826;2023-02-28T11:54:59;24.53;;;5.50;;
11964;SDS011;6042;41.326;19.826;2023-02-28T11:57:38;29.87;;;5.87;;
11964;SDS011;6042;41.326;19.826;2023-02-28T12:00:25;30.10;;;6.50;;
11964;SDS011;6042;41.326;19.826;2023-02-28T12:03:08;34.80;;;6.57;;
11964;SDS011;6042;41.326;19.826;2023-02-28T12:05:48;36.20;;;7.00;;
11964;SDS011;6042;41.326;19.826;2023-02-28T12:08:25;32.13;;;5.77;;
11964;SDS011;6042;41.326;19.826;2023-02-28T12:11:06;34.53;;;8.33;;
11964;SDS011;6042;41.326;19.826;2023-02-28T12:13:46;22.47;;;5.80;;
11964;SDS011;6042;41.326;19.826;2023-02-28T12:19:18;35.67;;;6.87;;
11964;SDS011;6042;41.326;19.826;2023-02-28T12:22:03;35.87;;;6.63;;
11964;SDS011;6042;41.326;19.826;2023-02-28T12:24:48;24.87;;;5.77;;
11964;SDS011;6042;41.326;19.826;2023-02-28T12:27:26;33.30;;;6.33;;
11964;SDS011;6042;41.326;19.826;2023-02-28T12:29:58;24.87;;;5.80;;
11964;SDS011;6042;41.326;19.826;2023-02-28T12:32:31;40.97;;;6.63;;
11964;SDS011;6042;41.326;19.826;2023-02-28T12:35:04;44.33;;;7.13;;
11964;SDS011;6042;41.326;19.826;2023-02-28T12:37:43;33.43;;;6.20;;
11964;SDS011;6042;41.326;19.826;2023-02-28T12:40:15;34.70;;;5.97;;
11964;SDS011;6042;41.326;19.826;2023-02-28T12:42:49;39.00;;;7.83;;
11964;SDS011;6042;41.326;19.826;2023-02-28T12:45:21;32.53;;;6.97;;
11964;SDS011;6042;41.326;19.826;2023-02-28T12:47:52;24.67;;;6.13;;
11964;SDS011;6042;41.326;19.826;2023-02-28T12:50:24;21.80;;;6.13;;
11964;SDS011;6042;41.326;19.826;2023-02-28T12:52:58;29.93;;;5.60;;
11964;SDS011;6042;41.326;19.826;2023-02-28T12:55:31;23.50;;;5.70;;
11964;SDS011;6042;41.326;19.826;2023-02-28T12:58:10;24.70;;;5.57;;
11964;SDS011;6042;41.326;19.826;2023-02-28T13:00:45;36.07;;;7.03;;
11964;SDS011;6042;41.326;19.826;2023-02-28T13:03:39;19.27;;;5.40;;
11964;SDS011;6042;41.326;19.826;2023-02-28T13:06:34;26.03;;;5.80;;
11964;SDS011;6042;41.326;19.826;2023-02-28T13:09:13;17.87;;;4.97;;
11964;SDS011;6042;41.326;19.826;2023-02-28T13:11:44;25.60;;;6.30;;
11964;SDS011;6042;41.326;19.826;2023-02-28T13:14:19;28.87;;;5.80;;
11964;SDS011;6042;41.326;19.826;2023-02-28T13:16:57;19.50;;;5.00;;
11964;SDS011;6042;41.326;19.826;2023-02-28T13:19:30;29.77;;;6.43;;
11964;SDS011;6042;41.326;19.826;2023-02-28T13:22:00;29.37;;;6.83;;
11964;SDS011;6042;41.326;19.826;2023-02-28T13:24:37;29.33;;;6.10;;
11964;SDS011;6042;41.326;19.826;2023-02-28T13:33:22;33.92;;;6.22;;
11964;SDS011;6042;41.326;19.826;2023-02-28T13:36:06;32.67;;;5.82;;
11964;SDS011;6042;41.326;19.826;2023-02-28T13:38:50;25.60;;;5.25;;
11964;SDS011;6042;41.326;19.826;2023-02-28T13:44:16;36.38;;;5.70;;
11964;SDS011;6042;41.326;19.826;2023-02-28T13:52:57;29.60;;;5.72;;
11964;SDS011;6042;41.326;19.826;2023-02-28T13:55:43;24.40;;;5.47;;
11964;SDS011;6042;41.326;19.826;2023-02-28T13:58:23;38.10;;;7.80;;
11964;SDS011;6042;41.326;19.826;2023-02-28T14:01:15;37.95;;;6.82;;
11964;SDS011;6042;41.326;19.826;2023-02-28T14:06:54;30.88;;;6.22;;
11964;SDS011;6042;41.326;19.826;2023-02-28T14:09:25;32.58;;;6.18;;
11964;SDS011;6042;41.326;19.826;2023-02-28T14:11:57;31.60;;;7.03;;
11964;SDS011;6042;41.326;19.826;2023-02-28T14:15:18;29.20;;;5.97;;
11964;SDS011;6042;41.326;19.826;2023-02-28T14:17:56;27.40;;;6.00;;
11964;SDS011;6042;41.326;19.826;2023-02-28T14:20:27;27.23;;;5.63;;
11964;SDS011;6042;41.326;19.826;2023-02-28T14:23:02;23.17;;;5.17;;
11964;SDS011;6042;41.326;19.826;2023-02-28T14:25:35;25.83;;;5.07;;
11964;SDS011;6042;41.326;19.826;2023-02-28T14:28:11;26.97;;;5.87;;
11964;SDS011;6042;41.326;19.826;2023-02-28T14:30:56;33.43;;;5.67;;
11964;SDS011;6042;41.326;19.826;2023-02-28T14:33:32;25.40;;;6.10;;
11964;SDS011;6042;41.326;19.826;2023-02-28T14:36:12;32.87;;;6.47;;
11964;SDS011;6042;41.326;19.826;2023-02-28T14:38:46;33.10;;;6.23;;
11964;SDS011;6042;41.326;19.826;2023-02-28T14:41:21;23.10;;;4.73;;
11964;SDS011;6042;41.326;19.826;2023-02-28T14:43:52;21.57;;;5.00;;
11964;SDS011;6042;41.326;19.826;2023-02-28T14:46:25;30.03;;;5.80;;
11964;SDS011;6042;41.326;19.826;2023-02-28T14:48:58;30.70;;;5.27;;
11964;SDS011;6042;41.326;19.826;2023-02-28T14:51:26;26.27;;;5.90;;
11964;SDS011;6042;41.326;19.826;2023-02-28T14:53:57;27.43;;;5.20;;
11964;SDS011;6042;41.326;19.826;2023-02-28T14:56:30;31.27;;;5.37;;
11964;SDS011;6042;41.326;19.826;2023-02-28T14:59:03;24.03;;;5.47;;
11964;SDS011;6042;41.326;19.826;2023-02-28T15:01:34;24.23;;;5.43;;
11964;SDS011;6042;41.326;19.826;2023-02-28T15:04:03;26.37;;;4.83;;
11964;SDS011;6042;41.326;19.826;2023-02-28T15:06:33;26.93;;;5.40;;
11964;SDS011;6042;41.326;19.826;2023-02-28T15:09:13;29.37;;;6.43;;
11964;SDS011;6042;41.326;19.826;2023-02-28T15:11:45;24.27;;;5.50;;
11964;SDS011;6042;41.326;19.826;2023-02-28T15:14:18;25.90;;;5.57;;
11964;SDS011;6042;41.326;19.826;2023-02-28T15:16:51;24.00;;;6.20;;
11964;SDS011;6042;41.326;19.826;2023-02-28T15:19:24;19.20;;;5.40;;
11964;SDS011;6042;41.326;19.826;2023-02-28T15:21:57;23.17;;;5.43;;
11964;SDS011;6042;41.326;19.826;2023-02-28T15:24:31;21.07;;;5.67;;
11964;SDS011;6042;41.326;19.826;2023-02-28T15:27:05;19.30;;;5.27;;
11964;SDS011;6042;41.326;19.826;2023-02-28T15:29:42;22.60;;;6.13;;
11964;SDS011;6042;41.326;19.826;2023-02-28T15:32:23;32.33;;;6.97;;
11964;SDS011;6042;41.326;19.826;2023-02-28T15:34:55;19.13;;;5.83;;
11964;SDS011;6042;41.326;19.826;2023-02-28T15:37:39;30.47;;;6.70;;
11964;SDS011;6042;41.326;19.826;2023-02-28T15:40:16;23.80;;;5.90;;